Time;durP1;ratioP1;P1;durP2;ratioP2;P2;SDS_P1;SDS_P2;PMS_P1;PMS_P2;Temp;Humidity;BMP_temperature;BMP_pressure;BME280_temperature;BME280_humidity;BME280_pressure;Samples;Min_cycle;Max_cycle;Signal;HPM_P1;HPM_P2
2021/06/28 05:01:21;;;;;;;11.90;11.00;;;;;;;;;;5665915;23;20231;-68
2021/06/28 05:04:06;;;;;;;26.70;14.37;;;;;;;;;;4981961;28;20223;-71
2021/06/28 05:06:51;;;;;;;14.33;13.03;;;;;;;;;;4994403;28;20251;-70
2021/06/28 05:09:36;;;;;;;14.05;13.15;;;;;;;;;;4977489;28;20475;-71
2021/06/28 05:12:21;;;;;;;16.63;13.70;;;;;;;;;;4974234;28;20231;-71
2021/06/28 05:15:07;;;;;;;13.57;12.27;;;;;;;;;;4974908;28;20206;-70
2021/06/28 05:17:53;;;;;;;14.77;13.23;;;;;;;;;;4987321;23;20265;-67
2021/06/28 05:20:38;;;;;;;13.13;11.90;;;;;;;;;;4974859;28;20211;-68
2021/06/28 05:23:23;;;;;;;13.33;12.27;;;;;;;;;;4974106;28;20207;-66
2021/06/28 05:26:08;;;;;;;13.77;12.57;;;;;;;;;;4974234;28;20252;-67
2021/06/28 05:28:52;;;;;;;15.32;14.13;;;;;;;;;;4973006;28;20434;-66
2021/06/28 05:31:37;;;;;;;14.50;13.30;;;;;;;;;;4989034;28;20339;-68
2021/06/28 05:34:24;;;;;;;16.93;14.77;;;;;;;;;;4988876;28;20219;-67
2021/06/28 05:37:09;;;;;;;13.60;12.60;;;;;;;;;;4974470;28;20239;-67
2021/06/28 05:39:53;;;;;;;15.47;12.07;;;;;;;;;;4974171;28;20202;-68
2021/06/28 05:42:39;;;;;;;13.07;11.93;;;;;;;;;;4973578;28;20583;-67
2021/06/28 05:45:24;;;;;;;12.93;11.63;;;;;;;;;;4972980;28;20224;-68
2021/06/28 05:48:09;;;;;;;12.57;11.50;;;;;;;;;;4973863;28;20348;-68
2021/06/28 05:50:55;;;;;;;36.57;14.00;;;;;;;;;;4974249;28;20308;-68
2021/06/28 05:53:43;;;;;;;12.03;11.13;;;;;;;;;;4973479;28;20264;-68
2021/06/28 05:56:28;;;;;;;34.60;14.30;;;;;;;;;;4974068;28;20228;-68
2021/06/28 05:59:12;;;;;;;13.47;12.27;;;;;;;;;;4974088;28;20279;-70
2021/06/28 06:01:57;;;;;;;24.27;12.83;;;;;;;;;;4973920;28;20200;-68
2021/06/28 06:04:42;;;;;;;13.77;12.67;;;;;;;;;;4972019;28;20543;-68
2021/06/28 06:07:29;;;;;;;12.70;11.70;;;;;;;;;;4973996;28;20234;-65
2021/06/28 06:10:15;;;;;;;12.67;11.73;;;;;;;;;;4973753;28;20204;-67
2021/06/28 06:13:00;;;;;;;13.83;12.67;;;;;;;;;;4973428;28;20486;-68
2021/06/28 06:15:45;;;;;;;14.63;12.93;;;;;;;;;;4973695;28;20204;-68
2021/06/28 06:18:30;;;;;;;17.60;13.23;;;;;;;;;;4973638;28;20335;-67
2021/06/28 06:21:15;;;;;;;14.53;13.33;;;;;;;;;;4973457;28;20683;-68
2021/06/28 06:24:02;;;;;;;19.05;15.25;;;;;;;;;;4972300;28;20418;-67
2021/06/28 06:26:47;;;;;;;13.43;12.33;;;;;;;;;;4972994;28;20231;-67
2021/06/28 06:29:31;;;;;;;13.67;12.43;;;;;;;;;;4973724;28;20328;-67
2021/06/28 06:32:16;;;;;;;17.53;13.33;;;;;;;;;;4969217;28;20227;-67
2021/06/28 06:35:01;;;;;;;13.63;12.60;;;;;;;;;;4971540;28;20569;-67
2021/06/28 06:37:47;;;;;;;30.47;13.40;;;;;;;;;;4971803;28;20254;-68
2021/06/28 06:40:33;;;;;;;20.53;12.77;;;;;;;;;;4972914;28;20212;-67
2021/06/28 06:43:19;;;;;;;29.60;14.13;;;;;;;;;;4953227;29;20214;-69
2021/06/28 06:46:04;;;;;;;15.37;13.30;;;;;;;;;;4972563;28;20220;-67
2021/06/28 06:48:49;;;;;;;14.23;13.13;;;;;;;;;;4972833;28;20755;-67
2021/06/28 06:51:34;;;;;;;14.67;13.23;;;;;;;;;;4972660;28;20581;-68
2021/06/28 06:54:19;;;;;;;16.80;13.23;;;;;;;;;;4971694;28;20216;-68
2021/06/28 06:57:07;;;;;;;13.97;12.77;;;;;;;;;;4972664;28;20208;-68
2021/06/28 06:59:51;;;;;;;13.43;12.40;;;;;;;;;;4972010;28;20255;-67
2021/06/28 07:02:36;;;;;;;19.47;13.73;;;;;;;;;;4972059;28;20215;-68
2021/06/28 07:05:22;;;;;;;13.30;12.30;;;;;;;;;;4972015;28;20219;-68
2021/06/28 07:08:07;;;;;;;35.27;15.47;;;;;;;;;;4972127;28;20356;-68
2021/06/28 07:10:52;;;;;;;14.13;12.87;;;;;;;;;;4972415;28;20789;-68
2021/06/28 07:13:39;;;;;;;13.20;12.20;;;;;;;;;;4971932;28;20294;-67
2021/06/28 07:16:30;;;;;;;25.03;14.07;;;;;;;;;;4972113;28;20274;-67
2021/06/28 07:19:15;;;;;;;16.55;14.98;;;;;;;;;;4971741;28;20523;-68
2021/06/28 07:22:00;;;;;;;15.60;14.10;;;;;;;;;;4972505;28;20212;-67
2021/06/28 07:24:45;;;;;;;15.37;14.00;;;;;;;;;;4971543;28;20216;-69
2021/06/28 07:27:30;;;;;;;21.03;14.53;;;;;;;;;;4972187;28;20588;-68
2021/06/28 07:30:17;;;;;;;21.53;16.17;;;;;;;;;;4971815;28;20211;-68
2021/06/28 07:33:03;;;;;;;15.60;14.50;;;;;;;;;;4971684;28;20673;-68
2021/06/28 07:35:48;;;;;;;15.03;13.83;;;;;;;;;;4952725;28;20818;-66
2021/06/28 07:38:33;;;;;;;19.60;14.47;;;;;;;;;;4952966;29;20344;-68
2021/06/28 07:41:18;;;;;;;16.47;15.03;;;;;;;;;;4960907;28;20215;-68
2021/06/28 07:44:05;;;;;;;18.53;15.17;;;;;;;;;;4971327;28;20231;-67
2021/06/28 07:46:52;;;;;;;16.07;14.57;;;;;;;;;;4971768;28;20740;-67
2021/06/28 07:49:37;;;;;;;22.87;15.83;;;;;;;;;;4971702;28;20744;-67
2021/06/28 07:52:21;;;;;;;17.77;16.13;;;;;;;;;;4971596;28;20347;-68
2021/06/28 07:55:08;;;;;;;39.87;17.93;;;;;;;;;;4971686;28;20211;-67
2021/06/28 07:57:53;;;;;;;17.20;15.90;;;;;;;;;;4971862;28;20220;-67
2021/06/28 08:00:38;;;;;;;45.47;18.03;;;;;;;;;;4971506;28;20339;-68
2021/06/28 08:03:25;;;;;;;34.33;16.33;;;;;;;;;;4971401;28;20200;-65
2021/06/28 08:06:09;;;;;;;17.80;16.20;;;;;;;;;;4971399;28;20736;-67
2021/06/28 08:08:55;;;;;;;31.30;17.80;;;;;;;;;;4971468;28;20207;-67
2021/06/28 08:11:39;;;;;;;19.43;17.33;;;;;;;;;;4971820;28;20684;-68
2021/06/28 08:14:24;;;;;;;19.77;17.75;;;;;;;;;;4969430;28;20428;-69
2021/06/28 08:17:10;;;;;;;18.73;17.23;;;;;;;;;;4972125;28;20294;-68
2021/06/28 08:19:56;;;;;;;23.63;18.00;;;;;;;;;;4971524;28;20275;-67
2021/06/28 08:22:41;;;;;;;31.27;19.27;;;;;;;;;;4971136;28;20208;-66
2021/06/28 08:25:26;;;;;;;19.40;17.70;;;;;;;;;;4971412;28;20227;-68
2021/06/28 08:28:12;;;;;;;42.47;18.30;;;;;;;;;;4971610;28;20220;-66
2021/06/28 08:30:57;;;;;;;26.67;18.20;;;;;;;;;;4971714;28;20347;-68
2021/06/28 08:33:43;;;;;;;17.90;16.20;;;;;;;;;;4971481;28;20216;-68
2021/06/28 08:36:30;;;;;;;85.97;21.57;;;;;;;;;;4971792;28;20227;-68
2021/06/28 08:39:15;;;;;;;20.30;18.50;;;;;;;;;;4971845;28;20208;-68
2021/06/28 08:42:03;;;;;;;47.67;31.47;;;;;;;;;;4971410;28;20220;-68
2021/06/28 08:44:48;;;;;;;40.35;28.95;;;;;;;;;;4971016;28;20203;-69
2021/06/28 08:47:33;;;;;;;16.87;15.47;;;;;;;;;;4971459;28;20236;-67
2021/06/28 08:50:19;;;;;;;41.08;18.25;;;;;;;;;;4971595;28;20204;-68
2021/06/28 08:53:06;;;;;;;38.93;19.10;;;;;;;;;;4971077;28;20836;-68
2021/06/28 08:55:52;;;;;;;18.60;16.65;;;;;;;;;;4965969;28;20205;-67
2021/06/28 08:58:38;;;;;;;24.07;17.77;;;;;;;;;;4963337;28;20609;-67
2021/06/28 09:01:23;;;;;;;19.50;17.80;;;;;;;;;;4954950;28;20328;-68
2021/06/28 09:04:08;;;;;;;29.87;19.40;;;;;;;;;;4981893;28;20210;-67
2021/06/28 09:06:54;;;;;;;24.50;19.02;;;;;;;;;;4976313;28;20438;-67
2021/06/28 09:09:40;;;;;;;30.57;18.63;;;;;;;;;;4971188;28;20704;-68
2021/06/28 09:12:25;;;;;;;19.33;17.87;;;;;;;;;;4970589;28;20219;-68
2021/06/28 09:15:11;;;;;;;19.70;17.60;;;;;;;;;;4972317;28;20212;-67
2021/06/28 09:17:56;;;;;;;37.10;19.27;;;;;;;;;;4977017;28;20298;-67
2021/06/28 09:20:41;;;;;;;20.33;18.40;;;;;;;;;;4994162;28;20226;-67
2021/06/28 09:23:27;;;;;;;80.67;22.80;;;;;;;;;;4977274;28;20348;-69
2021/06/28 09:26:14;;;;;;;24.67;18.97;;;;;;;;;;4993467;28;20234;-67
2021/06/28 09:29:00;;;;;;;23.67;17.53;;;;;;;;;;4980668;28;20215;-69
2021/06/28 09:31:45;;;;;;;21.23;19.23;;;;;;;;;;4974422;28;20287;-67
2021/06/28 09:34:33;;;;;;;18.87;17.33;;;;;;;;;;4973771;28;20212;-66
2021/06/28 09:37:19;;;;;;;19.87;16.33;;;;;;;;;;4974310;28;20299;-67
2021/06/28 09:40:05;;;;;;;16.00;14.40;;;;;;;;;;4978947;28;20238;-66
2021/06/28 09:42:51;;;;;;;19.57;16.73;;;;;;;;;;4980536;28;20214;-66
2021/06/28 09:45:41;;;;;;;19.73;17.90;;;;;;;;;;4968719;28;20287;-67
2021/06/28 09:48:26;;;;;;;20.10;16.73;;;;;;;;;;4972827;28;20287;-67
2021/06/28 09:51:22;;;;;;;18.80;16.90;;;;;;;;;;4972684;28;20712;-67
2021/06/28 09:54:18;;;;;;;18.03;16.50;;;;;;;;;;4972061;28;20228;-67
2021/06/28 09:57:06;;;;;;;19.43;14.07;;;;;;;;;;4972652;28;20228;-67
2021/06/28 09:59:52;;;;;;;41.47;18.93;;;;;;;;;;4972734;28;20216;-67
2021/06/28 10:02:40;;;;;;;20.90;19.20;;;;;;;;;;4971152;28;20863;-67
2021/06/28 10:05:28;;;;;;;32.27;18.47;;;;;;;;;;4969048;28;20692;-67
2021/06/28 10:08:14;;;;;;;45.83;19.33;;;;;;;;;;4972398;28;20736;-67
2021/06/28 10:11:09;;;;;;;18.73;17.33;;;;;;;;;;4972583;28;20208;-67
2021/06/28 10:13:55;;;;;;;19.73;16.47;;;;;;;;;;4971700;28;20204;-68
2021/06/28 10:16:42;;;;;;;20.90;18.30;;;;;;;;;;4972497;28;20636;-67
2021/06/28 10:19:26;;;;;;;32.57;18.93;;;;;;;;;;4972261;28;20216;-69
2021/06/28 10:22:11;;;;;;;20.07;18.33;;;;;;;;;;4972165;28;20458;-68
2021/06/28 10:24:56;;;;;;;18.87;17.20;;;;;;;;;;4960695;28;20516;-67
2021/06/28 10:27:41;;;;;;;18.50;16.90;;;;;;;;;;4953820;29;20232;-68
2021/06/28 10:30:28;;;;;;;18.13;16.53;;;;;;;;;;4953654;28;20698;-68
2021/06/28 10:33:14;;;;;;;19.77;17.87;;;;;;;;;;4963434;28;20216;-69
2021/06/28 10:36:00;;;;;;;19.30;17.53;;;;;;;;;;4972147;28;20260;-66
2021/06/28 10:38:47;;;;;;;18.33;16.70;;;;;;;;;;4990558;28;20215;-67
2021/06/28 10:41:38;;;;;;;20.77;16.57;;;;;;;;;;4980548;28;20279;-67
2021/06/28 10:44:24;;;;;;;20.53;18.37;;;;;;;;;;4972534;28;20212;-67
2021/06/28 10:47:09;;;;;;;63.67;20.43;;;;;;;;;;4972686;28;20515;-67
2021/06/28 10:49:57;;;;;;;23.47;18.53;;;;;;;;;;4971033;28;20651;-67
2021/06/28 10:52:46;;;;;;;226.60;33.50;;;;;;;;;;4979949;28;20211;-67
2021/06/28 10:55:41;;;;;;;71.60;22.90;;;;;;;;;;4973234;28;20311;-67
2021/06/28 10:58:27;;;;;;;26.05;19.63;;;;;;;;;;4971634;28;20442;-67
2021/06/28 11:01:15;;;;;;;34.13;17.83;;;;;;;;;;4973047;28;20305;-67
2021/06/28 11:04:04;;;;;;;64.00;21.30;;;;;;;;;;4972355;28;20232;-66
2021/06/28 11:07:04;;;;;;;25.50;17.53;;;;;;;;;;4972628;28;20300;-67
2021/06/28 11:09:50;;;;;;;21.67;19.33;;;;;;;;;;4972822;28;20313;-66
2021/06/28 11:12:35;;;;;;;21.07;17.67;;;;;;;;;;4972124;28;20308;-65
2021/06/28 11:15:25;;;;;;;25.07;16.83;;;;;;;;;;4972710;28;20207;-69
2021/06/28 11:18:27;;;;;;;22.70;16.93;;;;;;;;;;4972065;28;20744;-67
2021/06/28 11:21:12;;;;;;;19.37;17.43;;;;;;;;;;4971342;28;20203;-68
2021/06/28 11:24:00;;;;;;;125.97;26.17;;;;;;;;;;4971090;28;20204;-67
2021/06/28 11:26:45;;;;;;;180.63;30.43;;;;;;;;;;4971901;28;20595;-67
2021/06/28 11:29:49;;;;;;;83.00;23.07;;;;;;;;;;4972265;28;20295;-69
2021/06/28 11:32:34;;;;;;;63.13;21.73;;;;;;;;;;4971461;28;20227;-68
2021/06/28 11:35:34;;;;;;;25.40;17.27;;;;;;;;;;4972002;28;20215;-69
2021/06/28 11:38:20;;;;;;;169.10;30.40;;;;;;;;;;4972311;28;20247;-67
2021/06/28 11:41:15;;;;;;;106.23;25.27;;;;;;;;;;4968681;28;20340;-67
2021/06/28 11:44:01;;;;;;;70.87;22.87;;;;;;;;;;4985803;28;20215;-68
2021/06/28 11:46:47;;;;;;;155.37;31.77;;;;;;;;;;4986963;28;20219;-68
2021/06/28 11:49:32;;;;;;;135.13;29.33;;;;;;;;;;4972599;28;20295;-66
2021/06/28 11:52:17;;;;;;;185.23;34.38;;;;;;;;;;4970590;28;20510;-67
2021/06/28 11:55:03;;;;;;;27.07;18.43;;;;;;;;;;4971867;28;20208;-67
2021/06/28 11:57:51;;;;;;;121.17;26.70;;;;;;;;;;4970604;28;20236;-67
2021/06/28 12:00:36;;;;;;;88.27;22.73;;;;;;;;;;4972370;28;20216;-66
2021/06/28 12:03:24;;;;;;;25.97;20.00;;;;;;;;;;4970323;28;20247;-67
2021/06/28 12:06:10;;;;;;;117.47;28.07;;;;;;;;;;4971471;28;20230;-68
2021/06/28 12:09:09;;;;;;;289.03;41.47;;;;;;;;;;4971822;28;20191;-71
2021/06/28 12:11:56;;;;;;;76.97;23.07;;;;;;;;;;4969604;28;20211;-67
2021/06/28 12:14:43;;;;;;;28.90;19.67;;;;;;;;;;4970831;28;20211;-67
2021/06/28 12:17:29;;;;;;;103.03;25.30;;;;;;;;;;4970976;28;20230;-67
2021/06/28 12:20:18;;;;;;;41.57;18.60;;;;;;;;;;4971293;28;20223;-67
2021/06/28 12:23:10;;;;;;;81.17;23.67;;;;;;;;;;4970219;28;20899;-67
2021/06/28 12:25:55;;;;;;;119.07;26.37;;;;;;;;;;4971381;28;20215;-66
2021/06/28 12:28:40;;;;;;;78.70;22.47;;;;;;;;;;4970981;28;20226;-68
2021/06/28 12:31:26;;;;;;;21.80;17.47;;;;;;;;;;4971641;28;20787;-68
2021/06/28 12:34:11;;;;;;;80.63;21.87;;;;;;;;;;4970918;28;20259;-69
2021/06/28 12:36:56;;;;;;;126.60;26.47;;;;;;;;;;4971415;28;20224;-68
2021/06/28 12:39:42;;;;;;;16.93;15.53;;;;;;;;;;4970974;28;20759;-68
2021/06/28 12:42:26;;;;;;;29.70;16.10;;;;;;;;;;4971214;28;20231;-67
2021/06/28 12:45:13;;;;;;;17.80;16.10;;;;;;;;;;4971557;28;20228;-69
2021/06/28 12:48:00;;;;;;;44.05;20.00;;;;;;;;;;4970404;28;20603;-68
2021/06/28 12:50:51;;;;;;;154.97;29.73;;;;;;;;;;4971274;28;20579;-67
2021/06/28 12:53:36;;;;;;;49.03;20.63;;;;;;;;;;4971972;28;20856;-68
2021/06/28 12:56:21;;;;;;;51.83;22.27;;;;;;;;;;4975133;28;20247;-68
2021/06/28 12:59:05;;;;;;;111.73;28.03;;;;;;;;;;4974983;28;20207;-67
2021/06/28 13:01:58;;;;;;;48.70;22.17;;;;;;;;;;4974249;28;20212;-68
2021/06/28 13:05:01;;;;;;;23.00;20.67;;;;;;;;;;4972053;28;20204;-67
2021/06/28 13:07:46;;;;;;;27.30;21.90;;;;;;;;;;4970352;28;20287;-69
2021/06/28 13:10:31;;;;;;;61.50;24.27;;;;;;;;;;4982046;28;20283;-67
2021/06/28 13:13:16;;;;;;;86.53;26.90;;;;;;;;;;4981814;28;20600;-68
2021/06/28 13:16:22;;;;;;;28.00;22.13;;;;;;;;;;4970647;28;20224;-68
2021/06/28 13:19:08;;;;;;;47.87;22.33;;;;;;;;;;4973062;28;20255;-68
2021/06/28 13:21:58;;;;;;;76.57;25.47;;;;;;;;;;4973606;28;20259;-68
2021/06/28 13:24:48;;;;;;;32.60;22.57;;;;;;;;;;4965726;28;20855;-69
2021/06/28 13:27:33;;;;;;;56.63;23.97;;;;;;;;;;4971994;28;20731;-69
2021/06/28 13:30:18;;;;;;;52.90;24.43;;;;;;;;;;4974714;28;20347;-67
2021/06/28 13:33:07;;;;;;;34.03;22.43;;;;;;;;;;4966986;28;20211;-68
2021/06/28 13:35:52;;;;;;;30.50;22.23;;;;;;;;;;4973679;28;20224;-67
2021/06/28 13:38:50;;;;;;;51.30;24.30;;;;;;;;;;4977984;28;20351;-69
2021/06/28 13:41:48;;;;;;;60.22;25.13;;;;;;;;;;4963613;28;20567;-67
2021/06/28 13:44:33;;;;;;;22.23;19.53;;;;;;;;;;4973497;28;20371;-67
2021/06/28 13:47:19;;;;;;;30.40;19.57;;;;;;;;;;4974482;28;20228;-67
2021/06/28 13:50:14;;;;;;;161.30;31.83;;;;;;;;;;4973193;28;20204;-67
2021/06/28 13:53:00;;;;;;;90.10;25.53;;;;;;;;;;4973505;28;20428;-68
2021/06/28 13:55:48;;;;;;;52.47;22.30;;;;;;;;;;4974179;28;20212;-67
2021/06/28 13:58:35;;;;;;;19.10;17.27;;;;;;;;;;4973985;28;20219;-69
2021/06/28 14:01:20;;;;;;;20.23;18.43;;;;;;;;;;4974012;28;20291;-68
2021/06/28 14:04:05;;;;;;;20.63;18.53;;;;;;;;;;4973143;28;20204;-68
2021/06/28 14:06:50;;;;;;;73.77;22.13;;;;;;;;;;4973169;28;20581;-68
2021/06/28 14:09:35;;;;;;;30.67;18.63;;;;;;;;;;4973608;28;20207;-69
2021/06/28 14:12:21;;;;;;;32.60;17.90;;;;;;;;;;4973658;28;20216;-66
2021/06/28 14:15:07;;;;;;;19.27;17.53;;;;;;;;;;4973937;28;20225;-69
2021/06/28 14:17:52;;;;;;;20.97;19.10;;;;;;;;;;4973508;28;20247;-69
2021/06/28 14:20:38;;;;;;;20.17;18.60;;;;;;;;;;4973458;28;20207;-69
2021/06/28 14:23:23;;;;;;;22.83;19.53;;;;;;;;;;4973057;28;20212;-67
2021/06/28 14:26:07;;;;;;;20.50;18.37;;;;;;;;;;4973540;28;20339;-68
2021/06/28 14:28:54;;;;;;;31.97;19.20;;;;;;;;;;4973298;28;20279;-67
2021/06/28 14:31:39;;;;;;;39.27;22.23;;;;;;;;;;4973275;28;20223;-68
2021/06/28 14:34:24;;;;;;;34.83;20.10;;;;;;;;;;4972673;28;20629;-68
2021/06/28 14:37:09;;;;;;;39.30;23.88;;;;;;;;;;4972118;28;21025;-68
2021/06/28 14:39:54;;;;;;;21.63;19.73;;;;;;;;;;4973414;28;20231;-68
2021/06/28 14:42:40;;;;;;;21.83;19.77;;;;;;;;;;4972152;28;20215;-67
2021/06/28 14:45:26;;;;;;;35.90;20.63;;;;;;;;;;4953990;29;20217;-68
2021/06/28 14:48:11;;;;;;;29.07;18.30;;;;;;;;;;4968189;28;20228;-69
2021/06/28 14:50:55;;;;;;;44.00;19.23;;;;;;;;;;4972841;28;20216;-68
2021/06/28 14:53:41;;;;;;;29.30;17.20;;;;;;;;;;4972196;28;20688;-67
2021/06/28 14:56:26;;;;;;;14.30;13.03;;;;;;;;;;4970327;28;20308;-67
2021/06/28 14:59:11;;;;;;;15.77;14.17;;;;;;;;;;4971765;28;20264;-67
2021/06/28 15:01:57;;;;;;;14.30;13.00;;;;;;;;;;4972767;28;20376;-67
2021/06/28 15:04:42;;;;;;;14.03;12.93;;;;;;;;;;4972239;28;20204;-69
2021/06/28 15:07:27;;;;;;;13.07;12.17;;;;;;;;;;4967301;28;20304;-69
2021/06/28 15:10:12;;;;;;;14.00;13.00;;;;;;;;;;4972137;28;20207;-69
2021/06/28 15:12:57;;;;;;;17.33;16.03;;;;;;;;;;4970998;28;20231;-70
2021/06/28 15:15:42;;;;;;;19.37;17.57;;;;;;;;;;4966697;28;20716;-69
2021/06/28 15:18:28;;;;;;;18.60;17.10;;;;;;;;;;4971956;28;20215;-68
2021/06/28 15:21:14;;;;;;;16.67;15.37;;;;;;;;;;4972331;28;20208;-68
2021/06/28 15:23:59;;;;;;;13.10;12.00;;;;;;;;;;4952534;29;20577;-68
2021/06/28 15:26:44;;;;;;;12.10;11.23;;;;;;;;;;4964175;28;20231;-68
2021/06/28 15:29:29;;;;;;;11.83;10.97;;;;;;;;;;4971756;28;20231;-67
2021/06/28 15:32:14;;;;;;;11.37;10.37;;;;;;;;;;4971574;28;20419;-68
2021/06/28 15:35:00;;;;;;;11.17;10.47;;;;;;;;;;4972219;28;20705;-68
2021/06/28 15:37:45;;;;;;;11.27;10.57;;;;;;;;;;4972054;28;20224;-70
2021/06/28 15:40:30;;;;;;;10.57;9.77;;;;;;;;;;4968874;28;20228;-68
2021/06/28 15:43:15;;;;;;;10.90;10.03;;;;;;;;;;4952206;29;20589;-71
2021/06/28 15:46:00;;;;;;;11.07;10.37;;;;;;;;;;4971460;28;20255;-70
2021/06/28 15:48:46;;;;;;;11.50;10.63;;;;;;;;;;4971489;28;20230;-69
2021/06/28 15:51:32;;;;;;;11.50;10.57;;;;;;;;;;4972122;28;20270;-69
2021/06/28 15:54:17;;;;;;;10.77;9.90;;;;;;;;;;4971029;28;20236;-70
2021/06/28 15:57:03;;;;;;;11.63;10.83;;;;;;;;;;4971221;28;20230;-68
2021/06/28 15:59:48;;;;;;;11.77;10.87;;;;;;;;;;4971708;28;20413;-69
2021/06/28 16:02:33;;;;;;;13.53;12.43;;;;;;;;;;4971443;28;20207;-69
2021/06/28 16:05:18;;;;;;;14.80;13.70;;;;;;;;;;4970817;28;20452;-69
2021/06/28 16:08:05;;;;;;;14.87;13.67;;;;;;;;;;4971403;28;20224;-69
2021/06/28 16:10:50;;;;;;;15.40;14.10;;;;;;;;;;4970972;28;20208;-69
2021/06/28 16:13:35;;;;;;;13.33;12.23;;;;;;;;;;4971204;28;20571;-69
2021/06/28 16:16:20;;;;;;;14.63;13.53;;;;;;;;;;4971060;28;20727;-69
2021/06/28 16:19:05;;;;;;;14.53;13.47;;;;;;;;;;4971494;28;20255;-68
2021/06/28 16:21:50;;;;;;;15.20;13.93;;;;;;;;;;4971689;28;20584;-68
2021/06/28 16:24:36;;;;;;;15.17;14.10;;;;;;;;;;4970525;28;20200;-68
2021/06/28 16:27:22;;;;;;;16.40;15.20;;;;;;;;;;4970809;28;20490;-70
2021/06/28 16:30:07;;;;;;;15.83;14.63;;;;;;;;;;4974961;28;20434;-69
2021/06/28 16:32:52;;;;;;;14.23;13.13;;;;;;;;;;4974520;28;20208;-69
2021/06/28 16:35:37;;;;;;;13.80;12.70;;;;;;;;;;4975534;28;20287;-70
2021/06/28 16:38:22;;;;;;;15.60;14.10;;;;;;;;;;4975253;28;20575;-69
2021/06/28 16:41:09;;;;;;;14.83;13.73;;;;;;;;;;4975135;28;20219;-69
2021/06/28 16:43:53;;;;;;;15.77;14.43;;;;;;;;;;4974284;28;20208;-69
2021/06/28 16:46:38;;;;;;;14.93;13.83;;;;;;;;;;4975221;28;20319;-66
2021/06/28 16:49:23;;;;;;;16.87;15.40;;;;;;;;;;4974816;28;20251;-68
2021/06/28 16:52:08;;;;;;;15.67;14.50;;;;;;;;;;4974618;28;20589;-70
2021/06/28 16:54:53;;;;;;;18.00;16.60;;;;;;;;;;4974369;28;20212;-68
2021/06/28 16:57:39;;;;;;;19.80;18.13;;;;;;;;;;4974889;28;20340;-70
2021/06/28 17:00:24;;;;;;;18.70;17.20;;;;;;;;;;4974605;28;20683;-68
2021/06/28 17:03:09;;;;;;;20.17;18.67;;;;;;;;;;4974198;28;20300;-68
2021/06/28 17:05:54;;;;;;;20.70;18.90;;;;;;;;;;4974546;28;20212;-68
2021/06/28 17:08:38;;;;;;;20.07;18.47;;;;;;;;;;4974552;28;20621;-68
2021/06/28 17:11:24;;;;;;;20.90;19.20;;;;;;;;;;4974728;28;20584;-69
2021/06/28 17:14:10;;;;;;;21.57;19.77;;;;;;;;;;4973433;28;20215;-71
2021/06/28 17:16:55;;;;;;;21.60;19.77;;;;;;;;;;4974737;28;20243;-69
2021/06/28 17:19:40;;;;;;;21.57;19.87;;;;;;;;;;4974671;28;20273;-69
2021/06/28 17:22:25;;;;;;;23.40;21.65;;;;;;;;;;4973200;28;20491;-68
2021/06/28 17:25:10;;;;;;;25.00;22.93;;;;;;;;;;4974537;28;20224;-69
2021/06/28 17:27:57;;;;;;;24.93;23.13;;;;;;;;;;4973996;28;20228;-70
2021/06/28 17:30:43;;;;;;;27.47;24.90;;;;;;;;;;4974384;28;20527;-68
2021/06/28 17:33:28;;;;;;;28.93;26.63;;;;;;;;;;4973496;28;20216;-69
2021/06/28 17:36:14;;;;;;;28.80;26.50;;;;;;;;;;4974139;28;20236;-68
2021/06/28 17:38:59;;;;;;;29.20;26.70;;;;;;;;;;4974008;28;20215;-69
2021/06/28 17:41:44;;;;;;;29.33;26.90;;;;;;;;;;4974216;28;20208;-67
2021/06/28 17:44:29;;;;;;;29.37;26.83;;;;;;;;;;4973245;28;20215;-69
2021/06/28 17:47:15;;;;;;;29.50;27.07;;;;;;;;;;4974191;28;20226;-69
2021/06/28 17:50:00;;;;;;;29.23;26.83;;;;;;;;;;4973683;28;20231;-68
2021/06/28 17:52:45;;;;;;;28.50;26.10;;;;;;;;;;4973119;28;20231;-67
2021/06/28 17:55:29;;;;;;;27.40;25.27;;;;;;;;;;4974226;28;20424;-69
2021/06/28 17:58:14;;;;;;;28.37;25.80;;;;;;;;;;4973861;28;20214;-69
2021/06/28 18:00:59;;;;;;;27.93;25.83;;;;;;;;;;4975142;28;20490;-67
2021/06/28 18:03:48;;;;;;;27.23;25.03;;;;;;;;;;4967668;28;20693;-68
2021/06/28 18:06:34;;;;;;;26.67;24.47;;;;;;;;;;4973075;28;20264;-69
2021/06/28 18:09:19;;;;;;;26.57;24.47;;;;;;;;;;4973393;28;20216;-67
2021/06/28 18:12:04;;;;;;;27.67;25.37;;;;;;;;;;4973576;28;20203;-69
2021/06/28 18:14:49;;;;;;;27.10;24.70;;;;;;;;;;4973049;28;20334;-68
2021/06/28 18:17:34;;;;;;;28.25;25.95;;;;;;;;;;4972261;28;20425;-69
2021/06/28 18:20:22;;;;;;;26.47;24.33;;;;;;;;;;4973507;28;20252;-68
2021/06/28 18:23:07;;;;;;;25.50;23.30;;;;;;;;;;4972909;28;20208;-68
2021/06/28 18:25:53;;;;;;;25.53;23.33;;;;;;;;;;4973270;28;20219;-69
2021/06/28 18:28:38;;;;;;;22.87;21.17;;;;;;;;;;4973168;28;20224;-68
2021/06/28 18:31:23;;;;;;;24.37;22.27;;;;;;;;;;4973300;28;20332;-67
2021/06/28 18:34:09;;;;;;;24.50;22.50;;;;;;;;;;4972263;28;20351;-70
2021/06/28 18:36:55;;;;;;;25.43;23.30;;;;;;;;;;4973420;28;20230;-68
2021/06/28 18:39:40;;;;;;;26.87;24.70;;;;;;;;;;4973261;28;20255;-69
2021/06/28 18:42:25;;;;;;;27.30;25.07;;;;;;;;;;4972779;28;20219;-68
2021/06/28 18:45:11;;;;;;;27.10;24.60;;;;;;;;;;4966158;28;20231;-69
2021/06/28 18:47:56;;;;;;;26.13;24.13;;;;;;;;;;4973003;28;20231;-68
2021/06/28 18:50:42;;;;;;;26.90;24.70;;;;;;;;;;4972978;28;20207;-68
2021/06/28 18:53:29;;;;;;;26.00;24.00;;;;;;;;;;4972594;28;20278;-69
2021/06/28 18:56:29;;;;;;;25.87;23.67;;;;;;;;;;4972596;28;20309;-68
2021/06/28 18:59:15;;;;;;;26.67;24.60;;;;;;;;;;4972799;28;20246;-67
2021/06/28 19:02:03;;;;;;;26.00;23.80;;;;;;;;;;4973009;28;20219;-69
2021/06/28 19:04:48;;;;;;;26.30;24.10;;;;;;;;;;4972144;28;20259;-69
2021/06/28 19:07:33;;;;;;;25.60;23.60;;;;;;;;;;4970823;28;20240;-68
2021/06/28 19:10:19;;;;;;;24.63;22.63;;;;;;;;;;4971249;28;20751;-70
2021/06/28 19:13:04;;;;;;;28.10;25.90;;;;;;;;;;4968191;28;20540;-66
2021/06/28 19:15:49;;;;;;;27.13;24.90;;;;;;;;;;4967022;28;20211;-69
2021/06/28 19:18:34;;;;;;;28.27;25.70;;;;;;;;;;4972702;28;20583;-67
2021/06/28 19:21:19;;;;;;;27.83;25.63;;;;;;;;;;4974725;28;20211;-67
2021/06/28 19:24:04;;;;;;;28.13;25.57;;;;;;;;;;4967295;28;20211;-68
2021/06/28 19:26:50;;;;;;;27.63;25.47;;;;;;;;;;4972671;28;20887;-67
2021/06/28 19:29:35;;;;;;;27.60;25.30;;;;;;;;;;4972246;28;20229;-69
2021/06/28 19:32:22;;;;;;;28.73;26.33;;;;;;;;;;4972375;28;20801;-66
2021/06/28 19:35:08;;;;;;;29.60;27.07;;;;;;;;;;4972537;28;20206;-68
2021/06/28 19:37:53;;;;;;;27.80;25.60;;;;;;;;;;4962549;28;20251;-68
2021/06/28 19:40:38;;;;;;;29.13;26.47;;;;;;;;;;4971944;28;20663;-69
2021/06/28 19:43:24;;;;;;;28.40;26.03;;;;;;;;;;4971731;28;20635;-68
2021/06/28 19:46:09;;;;;;;31.03;28.57;;;;;;;;;;4971466;28;20543;-68
2021/06/28 19:48:54;;;;;;;28.40;26.03;;;;;;;;;;4972078;28;20222;-67
2021/06/28 19:51:39;;;;;;;28.97;26.63;;;;;;;;;;4953147;29;20220;-68
2021/06/28 19:54:24;;;;;;;26.17;24.00;;;;;;;;;;4952082;29;20705;-69
2021/06/28 19:57:09;;;;;;;26.37;24.23;;;;;;;;;;4952992;28;20238;-68
2021/06/28 19:59:55;;;;;;;25.47;23.37;;;;;;;;;;4957412;28;20210;-67
